OPKC/KHI METAR and TAF weather

Enter ICAO airport designator
Station Type Date Time Source
OPKC METAR 2020/07/12 18:30 UTC NOAA

OPKC 121830Z 23014KT 5000 FU BKN020 31/26 Q0999 TEMPO 25015G25KT


Station Type Date Time Source
OPKC Decoded METAR 2020/07/12 18:30 UTC NOAA

Karachi Airport, Pakistan (OPKC) 24-54N 067-08E 22M
Jul 12, 2020 - 02:30 PM EDT / 2020.07.12 1830 UTC
Wind: from the SW (230 degrees) at 16 MPH (14 KT):0
Visibility: 3 mile(s):0
Sky conditions: mostly cloudy
Weather: smoke
Temperature: 87 F (31 C)
Heat index: 99.7 F (37.6 C):1
Dew Point: 78 F (26 C)
Relative Humidity: 74%
Pressure (altimeter): 29.50 in. Hg (0999 hPa)
ob: OPKC 121830Z 23014KT 5000 FU BKN020 31/26 Q0999 TEMPO 25015G25KT
cycle: 18

Station Type Date Time Source
OPKC TAF 2020/07/12 18:13 UTC NOAA

TAF OPKC 121530Z 1218/1324 24012G22KT 4000 -RADZ SCT020 BKN030
FM130500 24015G25KT 6000 BKN030
FM131500 24010G20KT 5000 -RADZ SCT020 BKN030

Example: see airport list